sensor_id;sensor_type;location;lat;lon;timestamp;P1;durP1;ratioP1;P2;durP2;ratioP2
16766;SDS011;8501;49.926;8.404;2022-09-09T00:00:44;4.10;;;1.48;;
16766;SDS011;8501;49.926;8.404;2022-09-09T00:03:15;5.82;;;1.80;;
16766;SDS011;8501;49.926;8.404;2022-09-09T00:05:50;3.65;;;1.50;;
16766;SDS011;8501;49.926;8.404;2022-09-09T00:11:17;2.55;;;1.50;;
16766;SDS011;8501;49.926;8.404;2022-09-09T00:13:51;2.63;;;1.60;;
16766;SDS011;8501;49.926;8.404;2022-09-09T00:16:22;4.10;;;1.60;;
16766;SDS011;8501;49.926;8.404;2022-09-09T00:18:55;3.63;;;1.40;;
16766;SDS011;8501;49.926;8.404;2022-09-09T00:21:43;2.20;;;1.48;;
16766;SDS011;8501;49.926;8.404;2022-09-09T00:27:21;5.38;;;1.50;;
16766;SDS011;8501;49.926;8.404;2022-09-09T00:30:12;4.60;;;1.60;;
16766;SDS011;8501;49.926;8.404;2022-09-09T00:32:48;2.35;;;1.30;;
16766;SDS011;8501;49.926;8.404;2022-09-09T00:35:25;3.70;;;1.48;;
16766;SDS011;8501;49.926;8.404;2022-09-09T00:38:00;3.00;;;1.73;;
16766;SDS011;8501;49.926;8.404;2022-09-09T00:40:34;3.42;;;1.73;;
16766;SDS011;8501;49.926;8.404;2022-09-09T00:57:35;4.35;;;1.40;;
16766;SDS011;8501;49.926;8.404;2022-09-09T01:00:17;4.25;;;1.60;;
16766;SDS011;8501;49.926;8.404;2022-09-09T01:03:05;2.55;;;1.50;;
16766;SDS011;8501;49.926;8.404;2022-09-09T01:05:53;3.17;;;1.85;;
16766;SDS011;8501;49.926;8.404;2022-09-09T01:08:43;3.13;;;1.75;;
16766;SDS011;8501;49.926;8.404;2022-09-09T01:11:26;3.17;;;1.50;;
16766;SDS011;8501;49.926;8.404;2022-09-09T01:14:05;4.25;;;1.92;;
16766;SDS011;8501;49.926;8.404;2022-09-09T01:16:42;4.20;;;1.70;;
16766;SDS011;8501;49.926;8.404;2022-09-09T01:19:10;2.15;;;1.58;;
16766;SDS011;8501;49.926;8.404;2022-09-09T01:21:50;3.38;;;1.50;;
16766;SDS011;8501;49.926;8.404;2022-09-09T01:26:56;2.30;;;1.83;;
16766;SDS011;8501;49.926;8.404;2022-09-09T01:29:25;2.67;;;1.75;;
16766;SDS011;8501;49.926;8.404;2022-09-09T01:31:58;3.05;;;1.73;;
16766;SDS011;8501;49.926;8.404;2022-09-09T01:34:25;4.20;;;2.00;;
16766;SDS011;8501;49.926;8.404;2022-09-09T01:37:08;3.00;;;1.80;;
16766;SDS011;8501;49.926;8.404;2022-09-09T01:39:37;4.60;;;1.70;;
16766;SDS011;8501;49.926;8.404;2022-09-09T01:42:07;5.07;;;2.13;;
16766;SDS011;8501;49.926;8.404;2022-09-09T01:44:36;2.80;;;1.90;;
16766;SDS011;8501;49.926;8.404;2022-09-09T01:47:03;4.15;;;1.90;;
16766;SDS011;8501;49.926;8.404;2022-09-09T01:49:30;3.67;;;1.63;;
16766;SDS011;8501;49.926;8.404;2022-09-09T01:51:57;2.53;;;1.60;;
16766;SDS011;8501;49.926;8.404;2022-09-09T01:54:24;2.67;;;1.80;;
16766;SDS011;8501;49.926;8.404;2022-09-09T01:59:48;3.78;;;2.10;;
16766;SDS011;8501;49.926;8.404;2022-09-09T02:02:48;3.83;;;1.77;;
16766;SDS011;8501;49.926;8.404;2022-09-09T02:05:37;3.00;;;1.80;;
16766;SDS011;8501;49.926;8.404;2022-09-09T02:08:11;3.30;;;1.80;;
16766;SDS011;8501;49.926;8.404;2022-09-09T02:10:56;2.67;;;1.83;;
16766;SDS011;8501;49.926;8.404;2022-09-09T02:13:29;6.38;;;2.00;;
16766;SDS011;8501;49.926;8.404;2022-09-09T02:16:18;3.63;;;2.00;;
16766;SDS011;8501;49.926;8.404;2022-09-09T02:18:55;5.00;;;1.95;;
16766;SDS011;8501;49.926;8.404;2022-09-09T02:21:32;4.82;;;2.10;;
16766;SDS011;8501;49.926;8.404;2022-09-09T02:24:00;4.25;;;1.92;;
16766;SDS011;8501;49.926;8.404;2022-09-09T02:26:30;5.55;;;1.83;;
16766;SDS011;8501;49.926;8.404;2022-09-09T02:28:59;2.90;;;1.70;;
16766;SDS011;8501;49.926;8.404;2022-09-09T02:31:29;3.47;;;2.08;;
16766;SDS011;8501;49.926;8.404;2022-09-09T02:33:57;3.22;;;1.90;;
16766;SDS011;8501;49.926;8.404;2022-09-09T02:36:26;5.05;;;1.80;;
16766;SDS011;8501;49.926;8.404;2022-09-09T02:38:55;3.25;;;1.98;;
16766;SDS011;8501;49.926;8.404;2022-09-09T02:41:24;5.05;;;2.08;;
16766;SDS011;8501;49.926;8.404;2022-09-09T02:43:58;2.05;;;1.80;;
16766;SDS011;8501;49.926;8.404;2022-09-09T02:46:31;3.08;;;1.67;;
16766;SDS011;8501;49.926;8.404;2022-09-09T02:49:08;4.93;;;2.08;;
16766;SDS011;8501;49.926;8.404;2022-09-09T02:51:46;3.13;;;1.83;;
16766;SDS011;8501;49.926;8.404;2022-09-09T02:54:28;2.53;;;1.60;;
16766;SDS011;8501;49.926;8.404;2022-09-09T02:57:08;4.25;;;1.80;;
16766;SDS011;8501;49.926;8.404;2022-09-09T02:59:44;2.45;;;1.55;;
16766;SDS011;8501;49.926;8.404;2022-09-09T03:02:10;2.97;;;1.55;;
16766;SDS011;8501;49.926;8.404;2022-09-09T03:04:37;5.88;;;2.00;;
16766;SDS011;8501;49.926;8.404;2022-09-09T03:07:04;3.17;;;1.67;;
16766;SDS011;8501;49.926;8.404;2022-09-09T03:09:30;7.43;;;2.10;;
16766;SDS011;8501;49.926;8.404;2022-09-09T03:11:57;2.80;;;1.50;;
16766;SDS011;8501;49.926;8.404;2022-09-09T03:14:23;3.63;;;1.90;;
16766;SDS011;8501;49.926;8.404;2022-09-09T03:16:53;3.58;;;1.88;;
16766;SDS011;8501;49.926;8.404;2022-09-09T03:19:19;3.63;;;1.90;;
16766;SDS011;8501;49.926;8.404;2022-09-09T03:21:46;4.88;;;1.92;;
16766;SDS011;8501;49.926;8.404;2022-09-09T03:24:12;4.40;;;1.77;;
16766;SDS011;8501;49.926;8.404;2022-09-09T03:26:39;3.03;;;1.90;;
16766;SDS011;8501;49.926;8.404;2022-09-09T03:29:05;4.03;;;2.00;;
16766;SDS011;8501;49.926;8.404;2022-09-09T03:31:31;4.05;;;1.92;;
16766;SDS011;8501;49.926;8.404;2022-09-09T03:34:01;3.97;;;2.15;;
16766;SDS011;8501;49.926;8.404;2022-09-09T03:36:27;3.15;;;1.80;;
16766;SDS011;8501;49.926;8.404;2022-09-09T03:38:53;2.60;;;2.22;;
16766;SDS011;8501;49.926;8.404;2022-09-09T03:41:19;3.50;;;1.85;;
16766;SDS011;8501;49.926;8.404;2022-09-09T03:43:47;3.88;;;2.33;;
16766;SDS011;8501;49.926;8.404;2022-09-09T03:46:12;4.82;;;1.83;;
16766;SDS011;8501;49.926;8.404;2022-09-09T03:48:37;4.63;;;2.03;;
16766;SDS011;8501;49.926;8.404;2022-09-09T03:51:03;5.20;;;1.67;;
16766;SDS011;8501;49.926;8.404;2022-09-09T03:53:29;3.67;;;1.63;;
16766;SDS011;8501;49.926;8.404;2022-09-09T03:55:55;5.72;;;1.92;;
16766;SDS011;8501;49.926;8.404;2022-09-09T03:58:25;4.22;;;2.00;;
16766;SDS011;8501;49.926;8.404;2022-09-09T04:03:24;4.00;;;1.90;;
16766;SDS011;8501;49.926;8.404;2022-09-09T04:05:53;3.15;;;2.08;;
16766;SDS011;8501;49.926;8.404;2022-09-09T04:08:20;2.78;;;1.60;;
16766;SDS011;8501;49.926;8.404;2022-09-09T04:10:49;3.17;;;1.70;;
16766;SDS011;8501;49.926;8.404;2022-09-09T04:13:15;3.95;;;1.60;;
16766;SDS011;8501;49.926;8.404;2022-09-09T04:15:42;3.05;;;1.65;;
16766;SDS011;8501;49.926;8.404;2022-09-09T04:18:08;3.92;;;1.90;;
16766;SDS011;8501;49.926;8.404;2022-09-09T04:20:34;4.55;;;1.98;;
16766;SDS011;8501;49.926;8.404;2022-09-09T04:23:00;6.75;;;1.90;;
16766;SDS011;8501;49.926;8.404;2022-09-09T04:25:26;4.00;;;1.83;;
16766;SDS011;8501;49.926;8.404;2022-09-09T04:27:55;3.33;;;1.60;;
16766;SDS011;8501;49.926;8.404;2022-09-09T04:30:21;4.40;;;2.00;;
16766;SDS011;8501;49.926;8.404;2022-09-09T04:32:47;4.38;;;1.80;;
16766;SDS011;8501;49.926;8.404;2022-09-09T04:35:12;6.00;;;2.00;;
16766;SDS011;8501;49.926;8.404;2022-09-09T04:37:38;4.60;;;1.95;;
16766;SDS011;8501;49.926;8.404;2022-09-09T04:40:04;3.75;;;1.70;;
16766;SDS011;8501;49.926;8.404;2022-09-09T04:42:34;3.58;;;1.80;;
16766;SDS011;8501;49.926;8.404;2022-09-09T04:45:00;4.57;;;2.00;;
16766;SDS011;8501;49.926;8.404;2022-09-09T04:47:26;7.35;;;1.80;;
16766;SDS011;8501;49.926;8.404;2022-09-09T04:49:52;4.43;;;2.08;;
16766;SDS011;8501;49.926;8.404;2022-09-09T04:52:19;4.60;;;1.90;;
16766;SDS011;8501;49.926;8.404;2022-09-09T04:54:45;2.20;;;1.90;;
16766;SDS011;8501;49.926;8.404;2022-09-09T04:57:11;4.20;;;1.80;;
16766;SDS011;8501;49.926;8.404;2022-09-09T04:59:36;4.43;;;1.98;;
16766;SDS011;8501;49.926;8.404;2022-09-09T05:02:02;4.13;;;1.70;;
16766;SDS011;8501;49.926;8.404;2022-09-09T05:04:28;3.22;;;2.03;;
16766;SDS011;8501;49.926;8.404;2022-09-09T05:06:53;5.60;;;1.92;;
16766;SDS011;8501;49.926;8.404;2022-09-09T05:09:19;3.50;;;1.70;;
16766;SDS011;8501;49.926;8.404;2022-09-09T05:11:44;3.03;;;1.83;;
16766;SDS011;8501;49.926;8.404;2022-09-09T05:14:11;3.80;;;2.05;;
16766;SDS011;8501;49.926;8.404;2022-09-09T05:16:37;5.22;;;2.10;;
16766;SDS011;8501;49.926;8.404;2022-09-09T05:19:02;5.57;;;2.00;;
16766;SDS011;8501;49.926;8.404;2022-09-09T05:21:28;4.63;;;2.10;;
16766;SDS011;8501;49.926;8.404;2022-09-09T05:23:55;3.45;;;1.95;;
16766;SDS011;8501;49.926;8.404;2022-09-09T05:26:21;3.67;;;2.10;;
16766;SDS011;8501;49.926;8.404;2022-09-09T05:28:47;3.85;;;1.83;;
16766;SDS011;8501;49.926;8.404;2022-09-09T05:31:14;2.88;;;1.83;;
16766;SDS011;8501;49.926;8.404;2022-09-09T05:33:41;3.17;;;1.80;;
16766;SDS011;8501;49.926;8.404;2022-09-09T05:36:09;3.80;;;1.98;;
16766;SDS011;8501;49.926;8.404;2022-09-09T05:38:38;3.45;;;2.05;;
16766;SDS011;8501;49.926;8.404;2022-09-09T05:41:04;2.90;;;1.90;;
16766;SDS011;8501;49.926;8.404;2022-09-09T05:43:30;3.85;;;1.83;;
16766;SDS011;8501;49.926;8.404;2022-09-09T05:46:02;3.58;;;1.70;;
16766;SDS011;8501;49.926;8.404;2022-09-09T05:48:30;3.85;;;1.95;;
16766;SDS011;8501;49.926;8.404;2022-09-09T05:50:56;4.57;;;1.85;;
16766;SDS011;8501;49.926;8.404;2022-09-09T05:53:23;4.63;;;2.17;;
16766;SDS011;8501;49.926;8.404;2022-09-09T05:55:48;3.60;;;2.05;;
16766;SDS011;8501;49.926;8.404;2022-09-09T05:58:14;5.03;;;1.83;;
16766;SDS011;8501;49.926;8.404;2022-09-09T06:00:41;2.83;;;2.05;;
16766;SDS011;8501;49.926;8.404;2022-09-09T06:03:10;2.88;;;2.03;;
16766;SDS011;8501;49.926;8.404;2022-09-09T06:05:36;6.50;;;2.30;;
16766;SDS011;8501;49.926;8.404;2022-09-09T06:08:02;4.75;;;2.13;;
16766;SDS011;8501;49.926;8.404;2022-09-09T06:10:28;6.38;;;2.33;;
16766;SDS011;8501;49.926;8.404;2022-09-09T06:12:53;3.50;;;1.95;;
16766;SDS011;8501;49.926;8.404;2022-09-09T06:15:19;7.75;;;2.35;;
16766;SDS011;8501;49.926;8.404;2022-09-09T06:17:44;6.78;;;2.10;;
16766;SDS011;8501;49.926;8.404;2022-09-09T06:20:10;4.93;;;2.17;;
16766;SDS011;8501;49.926;8.404;2022-09-09T06:22:36;3.40;;;2.10;;
16766;SDS011;8501;49.926;8.404;2022-09-09T06:25:03;5.85;;;2.30;;
16766;SDS011;8501;49.926;8.404;2022-09-09T06:27:29;3.95;;;1.92;;
16766;SDS011;8501;49.926;8.404;2022-09-09T06:29:55;5.32;;;2.15;;
16766;SDS011;8501;49.926;8.404;2022-09-09T06:32:21;3.58;;;2.00;;
16766;SDS011;8501;49.926;8.404;2022-09-09T06:34:46;3.45;;;2.10;;
16766;SDS011;8501;49.926;8.404;2022-09-09T06:37:14;5.47;;;1.75;;
16766;SDS011;8501;49.926;8.404;2022-09-09T06:39:40;6.60;;;1.83;;
16766;SDS011;8501;49.926;8.404;2022-09-09T06:42:05;4.20;;;1.83;;
16766;SDS011;8501;49.926;8.404;2022-09-09T06:44:33;3.15;;;1.50;;
16766;SDS011;8501;49.926;8.404;2022-09-09T06:46:59;4.80;;;1.50;;
16766;SDS011;8501;49.926;8.404;2022-09-09T06:49:24;4.88;;;1.95;;
16766;SDS011;8501;49.926;8.404;2022-09-09T06:51:50;3.95;;;1.70;;
16766;SDS011;8501;49.926;8.404;2022-09-09T06:54:17;3.92;;;1.70;;
16766;SDS011;8501;49.926;8.404;2022-09-09T06:56:43;6.45;;;1.80;;
16766;SDS011;8501;49.926;8.404;2022-09-09T06:59:10;4.30;;;1.92;;
16766;SDS011;8501;49.926;8.404;2022-09-09T07:01:40;4.07;;;1.60;;
16766;SDS011;8501;49.926;8.404;2022-09-09T07:04:08;2.95;;;2.13;;
16766;SDS011;8501;49.926;8.404;2022-09-09T07:06:37;3.78;;;1.92;;
16766;SDS011;8501;49.926;8.404;2022-09-09T07:09:05;6.40;;;2.15;;
16766;SDS011;8501;49.926;8.404;2022-09-09T07:11:34;7.78;;;1.98;;
16766;SDS011;8501;49.926;8.404;2022-09-09T07:14:09;4.85;;;1.85;;
16766;SDS011;8501;49.926;8.404;2022-09-09T07:16:38;2.75;;;2.20;;
16766;SDS011;8501;49.926;8.404;2022-09-09T07:19:05;4.03;;;2.13;;
16766;SDS011;8501;49.926;8.404;2022-09-09T07:21:31;6.65;;;2.20;;
16766;SDS011;8501;49.926;8.404;2022-09-09T07:23:58;6.25;;;2.25;;
16766;SDS011;8501;49.926;8.404;2022-09-09T07:26:25;3.15;;;1.83;;
16766;SDS011;8501;49.926;8.404;2022-09-09T07:28:52;4.13;;;1.70;;
16766;SDS011;8501;49.926;8.404;2022-09-09T07:31:19;4.45;;;2.40;;
16766;SDS011;8501;49.926;8.404;2022-09-09T07:33:47;7.30;;;5.18;;
16766;SDS011;8501;49.926;8.404;2022-09-09T07:36:14;9.75;;;4.47;;
16766;SDS011;8501;49.926;8.404;2022-09-09T07:38:58;7.28;;;2.55;;
16766;SDS011;8501;49.926;8.404;2022-09-09T07:41:29;3.42;;;2.17;;
16766;SDS011;8501;49.926;8.404;2022-09-09T07:43:59;2.47;;;2.08;;
16766;SDS011;8501;49.926;8.404;2022-09-09T07:46:25;5.78;;;2.17;;
16766;SDS011;8501;49.926;8.404;2022-09-09T07:48:55;4.07;;;2.17;;
16766;SDS011;8501;49.926;8.404;2022-09-09T07:51:22;5.53;;;2.20;;
16766;SDS011;8501;49.926;8.404;2022-09-09T07:53:55;5.22;;;2.30;;
16766;SDS011;8501;49.926;8.404;2022-09-09T07:56:27;7.70;;;2.58;;
16766;SDS011;8501;49.926;8.404;2022-09-09T07:58:53;4.95;;;2.33;;
16766;SDS011;8501;49.926;8.404;2022-09-09T08:01:21;4.88;;;2.22;;
16766;SDS011;8501;49.926;8.404;2022-09-09T08:03:58;6.25;;;2.40;;
16766;SDS011;8501;49.926;8.404;2022-09-09T08:06:26;6.28;;;2.20;;
16766;SDS011;8501;49.926;8.404;2022-09-09T08:08:53;5.55;;;2.25;;
16766;SDS011;8501;49.926;8.404;2022-09-09T08:11:20;6.50;;;2.20;;
16766;SDS011;8501;49.926;8.404;2022-09-09T08:13:47;7.13;;;2.70;;
16766;SDS011;8501;49.926;8.404;2022-09-09T08:16:16;7.88;;;2.28;;
16766;SDS011;8501;49.926;8.404;2022-09-09T08:18:46;6.45;;;2.88;;
16766;SDS011;8501;49.926;8.404;2022-09-09T08:21:13;6.70;;;2.42;;
16766;SDS011;8501;49.926;8.404;2022-09-09T08:23:42;8.68;;;2.40;;
16766;SDS011;8501;49.926;8.404;2022-09-09T08:26:14;5.00;;;2.38;;
16766;SDS011;8501;49.926;8.404;2022-09-09T08:28:42;4.75;;;2.40;;
16766;SDS011;8501;49.926;8.404;2022-09-09T08:31:13;7.07;;;2.60;;
16766;SDS011;8501;49.926;8.404;2022-09-09T08:33:41;6.43;;;2.40;;
16766;SDS011;8501;49.926;8.404;2022-09-09T08:36:09;5.85;;;2.03;;
16766;SDS011;8501;49.926;8.404;2022-09-09T08:38:36;4.90;;;2.03;;
16766;SDS011;8501;49.926;8.404;2022-09-09T08:44:03;4.07;;;2.05;;
16766;SDS011;8501;49.926;8.404;2022-09-09T08:46:57;6.63;;;1.73;;
16766;SDS011;8501;49.926;8.404;2022-09-09T08:52:22;5.95;;;1.75;;
16766;SDS011;8501;49.926;8.404;2022-09-09T08:55:02;4.32;;;1.75;;
16766;SDS011;8501;49.926;8.404;2022-09-09T08:57:38;4.90;;;1.60;;
16766;SDS011;8501;49.926;8.404;2022-09-09T09:00:04;6.47;;;2.00;;
16766;SDS011;8501;49.926;8.404;2022-09-09T09:02:44;5.85;;;2.03;;
16766;SDS011;8501;49.926;8.404;2022-09-09T09:05:32;3.80;;;2.00;;
16766;SDS011;8501;49.926;8.404;2022-09-09T09:13:18;6.25;;;2.40;;
16766;SDS011;8501;49.926;8.404;2022-09-09T09:15:50;7.07;;;2.42;;
16766;SDS011;8501;49.926;8.404;2022-09-09T09:18:21;7.20;;;2.28;;
16766;SDS011;8501;49.926;8.404;2022-09-09T09:23:34;7.45;;;2.03;;
16766;SDS011;8501;49.926;8.404;2022-09-09T09:26:05;5.25;;;1.80;;
16766;SDS011;8501;49.926;8.404;2022-09-09T09:28:34;5.03;;;1.63;;
16766;SDS011;8501;49.926;8.404;2022-09-09T09:31:10;2.92;;;1.80;;
16766;SDS011;8501;49.926;8.404;2022-09-09T09:33:50;4.93;;;1.70;;
16766;SDS011;8501;49.926;8.404;2022-09-09T09:36:18;6.50;;;2.08;;
16766;SDS011;8501;49.926;8.404;2022-09-09T09:38:55;3.03;;;1.63;;
16766;SDS011;8501;49.926;8.404;2022-09-09T09:44:05;6.57;;;1.80;;
16766;SDS011;8501;49.926;8.404;2022-09-09T09:46:46;5.55;;;1.83;;
16766;SDS011;8501;49.926;8.404;2022-09-09T09:49:12;6.43;;;1.80;;
16766;SDS011;8501;49.926;8.404;2022-09-09T09:51:38;5.82;;;1.90;;
16766;SDS011;8501;49.926;8.404;2022-09-09T09:54:08;5.38;;;1.73;;
16766;SDS011;8501;49.926;8.404;2022-09-09T09:56:40;5.13;;;1.42;;
16766;SDS011;8501;49.926;8.404;2022-09-09T10:02:21;6.25;;;1.60;;
16766;SDS011;8501;49.926;8.404;2022-09-09T10:04:59;3.85;;;1.75;;
16766;SDS011;8501;49.926;8.404;2022-09-09T10:07:27;6.93;;;1.70;;
16766;SDS011;8501;49.926;8.404;2022-09-09T10:09:54;3.47;;;1.60;;
16766;SDS011;8501;49.926;8.404;2022-09-09T10:24:05;7.20;;;2.10;;
16766;SDS011;8501;49.926;8.404;2022-09-09T10:29:22;5.35;;;2.30;;
16766;SDS011;8501;49.926;8.404;2022-09-09T10:37:35;5.85;;;2.60;;
16766;SDS011;8501;49.926;8.404;2022-09-09T10:40:26;4.68;;;2.25;;
16766;SDS011;8501;49.926;8.404;2022-09-09T10:48:25;6.13;;;1.80;;
16766;SDS011;8501;49.926;8.404;2022-09-09T10:53:47;2.50;;;1.65;;
16766;SDS011;8501;49.926;8.404;2022-09-09T10:56:35;4.70;;;2.00;;
16766;SDS011;8501;49.926;8.404;2022-09-09T10:59:07;3.90;;;1.60;;
16766;SDS011;8501;49.926;8.404;2022-09-09T11:04:19;3.30;;;1.67;;
16766;SDS011;8501;49.926;8.404;2022-09-09T11:06:53;4.82;;;1.90;;
16766;SDS011;8501;49.926;8.404;2022-09-09T11:09:24;3.33;;;1.48;;
16766;SDS011;8501;49.926;8.404;2022-09-09T11:11:56;4.38;;;1.50;;
16766;SDS011;8501;49.926;8.404;2022-09-09T11:17:08;3.38;;;1.13;;
16766;SDS011;8501;49.926;8.404;2022-09-09T11:19:38;3.70;;;1.23;;
16766;SDS011;8501;49.926;8.404;2022-09-09T11:22:14;2.75;;;1.17;;
16766;SDS011;8501;49.926;8.404;2022-09-09T11:24:53;3.15;;;1.40;;
16766;SDS011;8501;49.926;8.404;2022-09-09T11:38:25;4.63;;;1.60;;
16766;SDS011;8501;49.926;8.404;2022-09-09T11:40:59;2.47;;;1.40;;
16766;SDS011;8501;49.926;8.404;2022-09-09T11:43:32;3.25;;;1.42;;
16766;SDS011;8501;49.926;8.404;2022-09-09T11:46:04;4.55;;;1.30;;
16766;SDS011;8501;49.926;8.404;2022-09-09T11:48:36;3.33;;;1.40;;
16766;SDS011;8501;49.926;8.404;2022-09-09T11:51:29;5.07;;;1.30;;
16766;SDS011;8501;49.926;8.404;2022-09-09T11:56:42;3.72;;;1.40;;
16766;SDS011;8501;49.926;8.404;2022-09-09T11:59:25;2.72;;;1.40;;
16766;SDS011;8501;49.926;8.404;2022-09-09T12:01:57;4.53;;;1.50;;
16766;SDS011;8501;49.926;8.404;2022-09-09T12:06:53;3.47;;;1.23;;
16766;SDS011;8501;49.926;8.404;2022-09-09T12:09:30;2.47;;;1.30;;
16766;SDS011;8501;49.926;8.404;2022-09-09T12:14:42;3.08;;;1.42;;
16766;SDS011;8501;49.926;8.404;2022-09-09T12:17:26;3.40;;;1.00;;
16766;SDS011;8501;49.926;8.404;2022-09-09T12:20:14;1.65;;;0.80;;
16766;SDS011;8501;49.926;8.404;2022-09-09T12:26:03;2.10;;;0.82;;
16766;SDS011;8501;49.926;8.404;2022-09-09T12:28:44;3.63;;;1.25;;
16766;SDS011;8501;49.926;8.404;2022-09-09T12:31:40;4.75;;;1.08;;
16766;SDS011;8501;49.926;8.404;2022-09-09T12:34:18;3.72;;;0.95;;
16766;SDS011;8501;49.926;8.404;2022-09-09T12:36:55;2.95;;;0.98;;
16766;SDS011;8501;49.926;8.404;2022-09-09T12:42:02;1.02;;;0.50;;
16766;SDS011;8501;49.926;8.404;2022-09-09T12:44:28;0.80;;;0.50;;
16766;SDS011;8501;49.926;8.404;2022-09-09T12:46:54;4.07;;;0.50;;
16766;SDS011;8501;49.926;8.404;2022-09-09T12:51:56;2.67;;;0.68;;
16766;SDS011;8501;49.926;8.404;2022-09-09T12:54:22;1.02;;;0.50;;
16766;SDS011;8501;49.926;8.404;2022-09-09T12:56:48;1.02;;;0.60;;
16766;SDS011;8501;49.926;8.404;2022-09-09T12:59:24;0.98;;;0.60;;
16766;SDS011;8501;49.926;8.404;2022-09-09T13:01:55;1.27;;;0.60;;
16766;SDS011;8501;49.926;8.404;2022-09-09T13:04:24;2.35;;;0.52;;
16766;SDS011;8501;49.926;8.404;2022-09-09T13:06:50;1.02;;;0.50;;
16766;SDS011;8501;49.926;8.404;2022-09-09T13:09:17;1.88;;;0.50;;
16766;SDS011;8501;49.926;8.404;2022-09-09T13:11:45;1.13;;;0.47;;
16766;SDS011;8501;49.926;8.404;2022-09-09T13:16:54;1.48;;;0.40;;
16766;SDS011;8501;49.926;8.404;2022-09-09T13:19:22;0.80;;;0.40;;
16766;SDS011;8501;49.926;8.404;2022-09-09T13:21:50;1.70;;;0.40;;
16766;SDS011;8501;49.926;8.404;2022-09-09T13:24:31;0.47;;;0.35;;
16766;SDS011;8501;49.926;8.404;2022-09-09T13:26:59;1.27;;;0.40;;
16766;SDS011;8501;49.926;8.404;2022-09-09T13:29:30;0.68;;;0.50;;
16766;SDS011;8501;49.926;8.404;2022-09-09T13:32:03;1.05;;;0.50;;
16766;SDS011;8501;49.926;8.404;2022-09-09T13:34:32;1.90;;;0.60;;
16766;SDS011;8501;49.926;8.404;2022-09-09T13:37:01;2.92;;;0.98;;
16766;SDS011;8501;49.926;8.404;2022-09-09T13:39:30;0.90;;;0.70;;
16766;SDS011;8501;49.926;8.404;2022-09-09T13:41:58;0.70;;;0.52;;
16766;SDS011;8501;49.926;8.404;2022-09-09T13:44:25;2.05;;;0.60;;
16766;SDS011;8501;49.926;8.404;2022-09-09T13:49:41;2.15;;;0.70;;
16766;SDS011;8501;49.926;8.404;2022-09-09T13:52:11;3.72;;;0.60;;
16766;SDS011;8501;49.926;8.404;2022-09-09T13:54:39;1.00;;;0.60;;
16766;SDS011;8501;49.926;8.404;2022-09-09T13:57:05;2.38;;;0.70;;
16766;SDS011;8501;49.926;8.404;2022-09-09T13:59:31;2.45;;;0.80;;
16766;SDS011;8501;49.926;8.404;2022-09-09T14:01:57;1.48;;;0.88;;
16766;SDS011;8501;49.926;8.404;2022-09-09T14:04:22;1.95;;;0.70;;
16766;SDS011;8501;49.926;8.404;2022-09-09T14:06:49;2.05;;;0.77;;
16766;SDS011;8501;49.926;8.404;2022-09-09T14:09:16;1.90;;;0.90;;
16766;SDS011;8501;49.926;8.404;2022-09-09T14:11:43;1.70;;;0.70;;
16766;SDS011;8501;49.926;8.404;2022-09-09T14:14:13;0.98;;;0.73;;
16766;SDS011;8501;49.926;8.404;2022-09-09T14:16:38;2.40;;;0.70;;
16766;SDS011;8501;49.926;8.404;2022-09-09T14:19:04;1.63;;;0.80;;
16766;SDS011;8501;49.926;8.404;2022-09-09T14:21:31;1.50;;;0.75;;
16766;SDS011;8501;49.926;8.404;2022-09-09T14:24:03;2.20;;;0.95;;
16766;SDS011;8501;49.926;8.404;2022-09-09T14:26:29;3.50;;;0.80;;
16766;SDS011;8501;49.926;8.404;2022-09-09T14:28:55;2.88;;;0.90;;
16766;SDS011;8501;49.926;8.404;2022-09-09T14:31:21;2.47;;;0.98;;
16766;SDS011;8501;49.926;8.404;2022-09-09T14:33:48;1.67;;;0.93;;
16766;SDS011;8501;49.926;8.404;2022-09-09T14:36:15;2.58;;;1.02;;
16766;SDS011;8501;49.926;8.404;2022-09-09T14:38:41;3.08;;;0.80;;
16766;SDS011;8501;49.926;8.404;2022-09-09T14:41:11;3.13;;;0.90;;
16766;SDS011;8501;49.926;8.404;2022-09-09T14:43:38;2.25;;;0.93;;
16766;SDS011;8501;49.926;8.404;2022-09-09T14:46:05;2.35;;;0.90;;
16766;SDS011;8501;49.926;8.404;2022-09-09T14:48:33;5.95;;;1.35;;
16766;SDS011;8501;49.926;8.404;2022-09-09T14:51:15;4.00;;;1.23;;
16766;SDS011;8501;49.926;8.404;2022-09-09T14:53:45;3.65;;;1.25;;
16766;SDS011;8501;49.926;8.404;2022-09-09T14:56:15;3.80;;;1.20;;
16766;SDS011;8501;49.926;8.404;2022-09-09T14:58:42;2.67;;;1.00;;
16766;SDS011;8501;49.926;8.404;2022-09-09T15:01:09;2.85;;;1.02;;
16766;SDS011;8501;49.926;8.404;2022-09-09T15:03:39;2.90;;;1.00;;
16766;SDS011;8501;49.926;8.404;2022-09-09T15:06:10;3.65;;;1.10;;
16766;SDS011;8501;49.926;8.404;2022-09-09T15:08:37;3.67;;;1.20;;
16766;SDS011;8501;49.926;8.404;2022-09-09T15:11:05;3.33;;;1.17;;
16766;SDS011;8501;49.926;8.404;2022-09-09T15:13:32;3.67;;;1.10;;
16766;SDS011;8501;49.926;8.404;2022-09-09T15:18:40;1.63;;;0.80;;
16766;SDS011;8501;49.926;8.404;2022-09-09T15:21:14;2.33;;;0.80;;
16766;SDS011;8501;49.926;8.404;2022-09-09T15:23:41;1.02;;;0.60;;
16766;SDS011;8501;49.926;8.404;2022-09-09T15:26:08;1.38;;;0.90;;
16766;SDS011;8501;49.926;8.404;2022-09-09T15:28:35;3.30;;;0.98;;
16766;SDS011;8501;49.926;8.404;2022-09-09T15:31:04;2.45;;;1.10;;
16766;SDS011;8501;49.926;8.404;2022-09-09T15:33:32;2.78;;;0.98;;
16766;SDS011;8501;49.926;8.404;2022-09-09T15:35:58;1.55;;;0.80;;
16766;SDS011;8501;49.926;8.404;2022-09-09T15:38:24;1.55;;;0.90;;
16766;SDS011;8501;49.926;8.404;2022-09-09T15:40:53;2.33;;;1.00;;
16766;SDS011;8501;49.926;8.404;2022-09-09T15:43:20;1.77;;;0.90;;
16766;SDS011;8501;49.926;8.404;2022-09-09T15:45:46;2.85;;;0.80;;
16766;SDS011;8501;49.926;8.404;2022-09-09T15:48:18;1.63;;;0.90;;
16766;SDS011;8501;49.926;8.404;2022-09-09T15:50:44;2.83;;;0.90;;
16766;SDS011;8501;49.926;8.404;2022-09-09T15:53:09;2.42;;;0.77;;
16766;SDS011;8501;49.926;8.404;2022-09-09T15:55:35;2.08;;;0.90;;
16766;SDS011;8501;49.926;8.404;2022-09-09T15:58:01;1.92;;;0.77;;
16766;SDS011;8501;49.926;8.404;2022-09-09T16:00:26;1.17;;;0.90;;
16766;SDS011;8501;49.926;8.404;2022-09-09T16:02:54;1.58;;;0.90;;
16766;SDS011;8501;49.926;8.404;2022-09-09T16:05:19;1.85;;;0.80;;
16766;SDS011;8501;49.926;8.404;2022-09-09T16:07:45;3.95;;;1.20;;
16766;SDS011;8501;49.926;8.404;2022-09-09T16:10:12;2.10;;;0.80;;
16766;SDS011;8501;49.926;8.404;2022-09-09T16:12:38;1.95;;;0.85;;
16766;SDS011;8501;49.926;8.404;2022-09-09T16:15:04;2.03;;;0.90;;
16766;SDS011;8501;49.926;8.404;2022-09-09T16:17:31;2.10;;;1.00;;
16766;SDS011;8501;49.926;8.404;2022-09-09T16:20:02;2.08;;;1.05;;
16766;SDS011;8501;49.926;8.404;2022-09-09T16:22:30;2.42;;;0.90;;
16766;SDS011;8501;49.926;8.404;2022-09-09T16:24:55;2.78;;;1.23;;
16766;SDS011;8501;49.926;8.404;2022-09-09T16:27:21;2.55;;;1.20;;
16766;SDS011;8501;49.926;8.404;2022-09-09T16:29:48;2.00;;;1.20;;
16766;SDS011;8501;49.926;8.404;2022-09-09T16:32:14;1.52;;;1.00;;
16766;SDS011;8501;49.926;8.404;2022-09-09T16:34:39;4.75;;;1.60;;
16766;SDS011;8501;49.926;8.404;2022-09-09T16:37:05;1.95;;;1.10;;
16766;SDS011;8501;49.926;8.404;2022-09-09T16:39:30;2.15;;;1.10;;
16766;SDS011;8501;49.926;8.404;2022-09-09T16:41:56;3.25;;;1.10;;
16766;SDS011;8501;49.926;8.404;2022-09-09T16:44:22;6.82;;;1.40;;
16766;SDS011;8501;49.926;8.404;2022-09-09T16:46:48;4.13;;;1.40;;
16766;SDS011;8501;49.926;8.404;2022-09-09T16:49:20;1.40;;;1.10;;
16766;SDS011;8501;49.926;8.404;2022-09-09T16:51:49;2.10;;;1.13;;
16766;SDS011;8501;49.926;8.404;2022-09-09T16:54:18;2.92;;;1.27;;
16766;SDS011;8501;49.926;8.404;2022-09-09T16:56:45;3.83;;;1.25;;
16766;SDS011;8501;49.926;8.404;2022-09-09T16:59:13;3.53;;;1.20;;
16766;SDS011;8501;49.926;8.404;2022-09-09T17:01:40;2.13;;;1.15;;
16766;SDS011;8501;49.926;8.404;2022-09-09T17:04:08;2.53;;;1.20;;
16766;SDS011;8501;49.926;8.404;2022-09-09T17:06:45;4.43;;;1.30;;
16766;SDS011;8501;49.926;8.404;2022-09-09T17:09:18;2.63;;;1.30;;
16766;SDS011;8501;49.926;8.404;2022-09-09T17:11:45;3.88;;;1.30;;
16766;SDS011;8501;49.926;8.404;2022-09-09T17:14:15;5.15;;;1.73;;